createdAt,value
2018-12-15T00:02:04.768Z,32.30
2018-12-15T00:04:32.748Z,31.20
2018-12-15T00:07:00.677Z,31.87
2018-12-15T00:09:28.687Z,34.97
2018-12-15T00:11:56.627Z,29.33
2018-12-15T00:14:24.677Z,33.23
2018-12-15T00:16:52.644Z,31.67
2018-12-15T00:19:20.709Z,30.93
2018-12-15T00:21:48.763Z,31.60
2018-12-15T00:24:16.707Z,31.57
2018-12-15T00:26:47.883Z,31.70
2018-12-15T00:29:16.663Z,32.40
2018-12-15T00:31:44.625Z,30.93
2018-12-15T00:34:12.537Z,33.87
2018-12-15T00:36:43.817Z,30.27
2018-12-15T00:39:11.719Z,33.97
2018-12-15T00:41:39.822Z,33.13
2018-12-15T00:44:12.137Z,28.50
2018-12-15T00:46:40.204Z,33.33
2018-12-15T00:49:08.198Z,30.53
2018-12-15T00:51:36.197Z,28.70
2018-12-15T00:54:04.228Z,32.90
2018-12-15T00:56:32.245Z,27.87
2018-12-15T00:59:02.261Z,32.97
2018-12-15T01:01:30.238Z,28.40
2018-12-15T01:03:58.272Z,31.70
2018-12-15T01:06:26.302Z,30.10
2018-12-15T01:08:54.243Z,33.97
2018-12-15T01:11:22.358Z,33.73
2018-12-15T01:13:50.353Z,29.50
2018-12-15T01:16:18.388Z,32.70
2018-12-15T01:18:46.332Z,29.27
2018-12-15T01:21:14.423Z,32.63
2018-12-15T01:23:42.633Z,31.63
2018-12-15T01:26:10.583Z,32.67
2018-12-15T01:28:38.588Z,30.97
2018-12-15T01:31:06.623Z,30.80
2018-12-15T01:33:34.578Z,32.47
2018-12-15T01:36:02.576Z,28.07
2018-12-15T01:38:30.525Z,32.53
2018-12-15T01:40:58.970Z,29.80
2018-12-15T01:43:26.904Z,31.57
2018-12-15T01:45:54.964Z,29.63
2018-12-15T01:48:23.004Z,30.97
2018-12-15T01:50:50.917Z,29.93
2018-12-15T01:53:18.974Z,30.80
2018-12-15T01:55:47.744Z,33.50
2018-12-15T01:58:16.756Z,29.87
2018-12-15T02:00:44.919Z,31.60
2018-12-15T02:03:12.954Z,29.83
2018-12-15T02:05:40.939Z,31.20
2018-12-15T02:08:09.039Z,29.67
2018-12-15T02:10:36.999Z,31.27
2018-12-15T02:13:04.964Z,32.33
2018-12-15T02:15:32.924Z,27.93
2018-12-15T02:18:00.954Z,29.37
2018-12-15T02:20:28.927Z,29.57
2018-12-15T02:22:56.938Z,29.17
2018-12-15T02:25:24.953Z,32.90
2018-12-15T02:27:53.023Z,32.53
2018-12-15T02:30:21.090Z,29.17
2018-12-15T02:32:49.079Z,29.50
2018-12-15T02:35:17.024Z,31.27
2018-12-15T02:37:45.066Z,30.33
2018-12-15T02:40:13.019Z,32.57
2018-12-15T02:42:41.054Z,30.97
2018-12-15T02:45:09.022Z,30.97
2018-12-15T02:47:41.564Z,32.17
2018-12-15T02:50:07.119Z,32.37
2018-12-15T02:52:35.246Z,30.20
2018-12-15T02:55:03.239Z,29.83
2018-12-15T02:57:31.224Z,29.13
2018-12-15T02:59:59.275Z,31.67
2018-12-15T03:02:27.313Z,27.47
2018-12-15T03:04:55.299Z,25.50
2018-12-15T03:07:23.311Z,25.53
2018-12-15T03:09:51.334Z,21.30
2018-12-15T03:12:19.334Z,19.50
2018-12-15T03:14:47.317Z,24.27
2018-12-15T03:17:15.350Z,20.60
2018-12-15T03:19:43.384Z,19.40
2018-12-15T03:22:11.379Z,22.77
2018-12-15T03:24:39.355Z,21.63
2018-12-15T03:27:07.273Z,17.50
2018-12-15T03:29:35.284Z,20.87
2018-12-15T03:32:03.182Z,20.47
2018-12-15T03:34:31.157Z,21.90
2018-12-15T03:36:59.108Z,26.43
2018-12-15T03:39:27.134Z,24.33
2018-12-15T03:41:55.093Z,21.37
2018-12-15T03:44:23.120Z,18.27
2018-12-15T03:46:51.070Z,21.97
2018-12-15T03:49:19.014Z,20.03
2018-12-15T03:51:46.984Z,21.53
2018-12-15T03:54:14.939Z,18.83
2018-12-15T03:56:42.850Z,22.53
2018-12-15T03:59:10.862Z,22.63
2018-12-15T04:01:38.803Z,25.43
2018-12-15T04:04:06.725Z,20.53
2018-12-15T04:06:34.672Z,19.73
2018-12-15T04:09:02.799Z,19.63
2018-12-15T04:11:30.774Z,21.03
2018-12-15T04:13:58.757Z,22.73
2018-12-15T04:16:26.669Z,21.67
2018-12-15T04:18:54.626Z,20.27
2018-12-15T04:21:22.672Z,20.43
2018-12-15T04:23:50.619Z,20.37
2018-12-15T04:26:18.545Z,20.37
2018-12-15T04:28:46.469Z,19.87
2018-12-15T04:31:14.449Z,23.50
2018-12-15T04:33:42.445Z,21.03
2018-12-15T04:36:17.234Z,18.70
2018-12-15T04:38:45.221Z,22.37
2018-12-15T04:41:13.196Z,25.67
2018-12-15T04:43:41.138Z,19.80
2018-12-15T04:46:10.706Z,21.57
2018-12-15T04:48:38.656Z,21.87
2018-12-15T04:51:06.619Z,21.53
2018-12-15T04:53:34.556Z,19.77
2018-12-15T04:56:02.529Z,18.40
2018-12-15T04:58:30.810Z,20.47
2018-12-15T05:00:58.981Z,24.40
2018-12-15T05:03:26.875Z,25.47
2018-12-15T05:05:54.869Z,20.20
2018-12-15T05:08:22.784Z,23.03
2018-12-15T05:10:50.770Z,21.40
2018-12-15T05:13:18.690Z,25.03
2018-12-15T05:15:46.655Z,25.00
2018-12-15T05:18:18.202Z,21.67
2018-12-15T05:20:44.611Z,24.83
2018-12-15T05:23:12.544Z,26.77
2018-12-15T05:25:40.500Z,24.00
2018-12-15T05:28:08.461Z,24.20
2018-12-15T05:30:36.459Z,28.00
2018-12-15T05:33:04.364Z,21.70
2018-12-15T05:35:32.290Z,21.43
2018-12-15T05:38:00.174Z,22.20
2018-12-15T05:40:28.189Z,22.07
2018-12-15T05:42:56.155Z,25.77
2018-12-15T05:45:24.109Z,27.80
2018-12-15T05:47:52.071Z,22.93
2018-12-15T05:50:20.095Z,24.27
2018-12-15T05:52:47.975Z,24.20
2018-12-15T05:55:15.945Z,24.23
2018-12-15T05:57:43.856Z,28.50
2018-12-15T06:00:11.965Z,24.40
2018-12-15T06:02:40.130Z,24.57
2018-12-15T06:05:08.804Z,23.30
2018-12-15T06:07:36.710Z,23.97
2018-12-15T06:10:04.975Z,25.50
2018-12-15T06:12:32.930Z,23.83
2018-12-15T06:15:00.890Z,24.50
2018-12-15T06:17:28.872Z,31.53
2018-12-15T06:19:56.820Z,25.87
2018-12-15T06:22:24.795Z,26.60
2018-12-15T06:24:52.735Z,28.03
2018-12-15T06:27:20.702Z,27.33
2018-12-15T06:29:48.715Z,26.77
2018-12-15T06:32:16.775Z,25.57
2018-12-15T06:34:44.710Z,22.63
2018-12-15T06:37:12.682Z,29.37
2018-12-15T06:39:40.590Z,31.23
2018-12-15T06:42:08.586Z,29.07
2018-12-15T06:44:36.475Z,28.07
2018-12-15T06:47:04.484Z,25.27
2018-12-15T06:49:32.675Z,24.63
2018-12-15T06:52:00.654Z,26.13
2018-12-15T06:54:28.545Z,27.13
2018-12-15T06:56:56.535Z,28.73
2018-12-15T06:59:24.475Z,31.10
2018-12-15T07:01:52.455Z,25.70
2018-12-15T07:04:20.360Z,27.87
2018-12-15T07:06:48.370Z,28.30
2018-12-15T07:09:16.320Z,25.13
2018-12-15T07:11:44.309Z,28.27
2018-12-15T07:14:12.280Z,28.70
2018-12-15T07:16:40.220Z,28.67
2018-12-15T07:19:08.114Z,31.87
2018-12-15T07:21:36.049Z,27.57
2018-12-15T07:24:03.954Z,30.40
2018-12-15T07:26:32.059Z,31.47
2018-12-15T07:28:59.966Z,27.50
2018-12-15T07:31:27.925Z,31.80
2018-12-15T07:33:55.799Z,28.93
2018-12-15T07:36:23.774Z,28.93
2018-12-15T07:38:51.734Z,23.73
2018-12-15T07:41:19.779Z,22.33
2018-12-15T07:43:47.709Z,24.33
2018-12-15T07:46:18.959Z,20.80
2018-12-15T07:48:51.273Z,21.73
2018-12-15T07:51:16.929Z,26.87
2018-12-15T07:53:44.919Z,21.03
2018-12-15T07:56:12.929Z,20.80
2018-12-15T07:58:40.944Z,20.80
2018-12-15T08:01:11.881Z,21.83
2018-12-15T08:03:39.859Z,20.03
2018-12-15T08:06:07.799Z,20.77
2018-12-15T08:08:35.789Z,21.67
2018-12-15T08:11:09.399Z,20.40
2018-12-15T08:13:39.420Z,28.53
2018-12-15T08:16:07.332Z,25.90
2018-12-15T08:18:35.340Z,20.80
2018-12-15T08:21:03.325Z,22.40
2018-12-15T08:23:31.369Z,25.03
2018-12-15T08:25:59.519Z,20.97
2018-12-15T08:28:27.554Z,22.07
2018-12-15T08:30:55.489Z,21.23
2018-12-15T08:33:23.520Z,19.47
2018-12-15T08:35:51.474Z,22.60
2018-12-15T08:38:20.424Z,25.57
2018-12-15T08:40:48.454Z,23.60
2018-12-15T08:43:16.389Z,22.53
2018-12-15T08:45:44.419Z,24.00
2018-12-15T08:48:12.384Z,22.47
2018-12-15T08:50:40.483Z,22.20
2018-12-15T08:53:08.489Z,23.23
2018-12-15T08:55:36.444Z,21.93
2018-12-15T08:58:05.361Z,22.63
2018-12-15T09:00:33.329Z,23.97
2018-12-15T09:03:01.339Z,22.50
2018-12-15T09:05:29.211Z,24.50
2018-12-15T09:07:57.195Z,23.83
2018-12-15T09:10:25.149Z,21.60
2018-12-15T09:12:53.153Z,21.37
2018-12-15T09:15:21.129Z,20.17
2018-12-15T09:17:49.093Z,22.90
2018-12-15T09:20:17.063Z,21.23
2018-12-15T09:22:50.515Z,23.90
2018-12-15T09:25:18.469Z,25.97
2018-12-15T09:27:46.424Z,20.00
2018-12-15T09:30:14.473Z,28.77
2018-12-15T09:32:42.463Z,23.00
2018-12-15T09:35:10.722Z,21.57
2018-12-15T09:37:38.648Z,21.77
2018-12-15T09:40:06.803Z,23.97
2018-12-15T09:42:34.777Z,23.77
2018-12-15T09:45:02.840Z,26.07
2018-12-15T09:47:30.771Z,24.23
2018-12-15T09:49:59.904Z,29.60
2018-12-15T09:52:28.023Z,25.47
2018-12-15T09:54:56.133Z,26.50
2018-12-15T09:57:24.073Z,23.23
2018-12-15T09:59:52.447Z,20.10
2018-12-15T10:02:20.474Z,21.77
2018-12-15T10:04:48.508Z,23.63
2018-12-15T10:07:16.545Z,21.57
2018-12-15T10:09:44.503Z,25.40
2018-12-15T10:12:12.426Z,23.93
2018-12-15T10:14:40.411Z,26.00
2018-12-15T10:17:08.988Z,24.70
2018-12-15T10:19:37.107Z,25.90
2018-12-15T10:22:05.042Z,24.47
2018-12-15T10:24:33.017Z,23.43
2018-12-15T10:27:01.031Z,24.50
2018-12-15T10:29:34.527Z,26.13
2018-12-15T10:32:08.052Z,23.07
2018-12-15T10:34:36.062Z,24.20
2018-12-15T10:37:04.483Z,25.80
2018-12-15T10:39:32.632Z,19.60
2018-12-15T10:42:00.612Z,21.07
2018-12-15T10:44:28.596Z,22.83
2018-12-15T10:46:56.498Z,22.60
2018-12-15T10:49:30.546Z,16.73
2018-12-15T10:51:54.612Z,21.40
2018-12-15T10:54:22.543Z,22.20
2018-12-15T10:56:50.572Z,21.67
2018-12-15T10:59:18.547Z,26.97
2018-12-15T11:01:46.524Z,25.97
2018-12-15T11:04:14.452Z,23.70
2018-12-15T11:06:42.577Z,15.63
2018-12-15T11:09:10.637Z,19.37
2018-12-15T11:11:38.612Z,23.47
2018-12-15T11:14:06.570Z,21.07
2018-12-15T11:16:34.713Z,27.13
2018-12-15T11:19:02.652Z,23.70
2018-12-15T11:21:30.852Z,24.57
2018-12-15T11:23:58.753Z,21.90
2018-12-15T11:26:26.772Z,20.73
2018-12-15T11:28:58.442Z,20.57
2018-12-15T11:31:26.393Z,21.20
2018-12-15T11:33:54.330Z,22.93
2018-12-15T11:36:22.294Z,25.00
2018-12-15T11:38:50.247Z,24.43
2018-12-15T11:41:18.312Z,20.53
2018-12-15T11:43:46.228Z,19.27
2018-12-15T11:46:14.218Z,19.03
2018-12-15T11:48:42.223Z,20.57
2018-12-15T11:51:10.263Z,18.43
2018-12-15T11:53:38.248Z,18.03
2018-12-15T11:56:06.334Z,20.73
2018-12-15T11:58:34.333Z,15.77
2018-12-15T12:01:02.509Z,18.47
2018-12-15T12:03:30.480Z,21.20
2018-12-15T12:05:58.532Z,19.27
2018-12-15T12:08:26.563Z,20.30
2018-12-15T12:10:54.540Z,21.47
2018-12-15T12:13:22.673Z,18.67
2018-12-15T12:15:51.015Z,19.80
2018-12-15T12:18:19.056Z,20.73
2018-12-15T12:20:47.023Z,19.80
2018-12-15T12:23:15.028Z,21.53
2018-12-15T12:25:44.125Z,21.27
2018-12-15T12:28:12.137Z,22.03
2018-12-15T12:30:40.132Z,21.03
2018-12-15T12:33:08.243Z,20.27
2018-12-15T12:35:36.348Z,18.57
2018-12-15T12:38:04.467Z,21.17
2018-12-15T12:40:32.557Z,19.63
2018-12-15T12:43:00.593Z,17.93
2018-12-15T12:45:28.534Z,19.17
2018-12-15T12:47:56.495Z,20.47
2018-12-15T12:50:24.563Z,18.03
2018-12-15T12:52:52.580Z,19.50
2018-12-15T12:55:20.573Z,21.57
2018-12-15T12:57:48.573Z,19.77
2018-12-15T13:00:16.638Z,20.93
2018-12-15T13:02:45.054Z,19.43
2018-12-15T13:05:13.435Z,22.57
2018-12-15T13:07:41.563Z,20.63
2018-12-15T13:10:09.747Z,20.80
2018-12-15T13:12:37.818Z,23.93
2018-12-15T13:15:06.161Z,23.23
2018-12-15T13:17:34.138Z,19.63
2018-12-15T13:20:03.834Z,20.60
2018-12-15T13:22:32.028Z,22.20
2018-12-15T13:24:59.957Z,22.77
2018-12-15T13:27:28.273Z,18.80
2018-12-15T13:29:56.973Z,16.47
2018-12-15T13:32:26.258Z,18.00
2018-12-15T13:34:54.238Z,19.17
2018-12-15T13:37:23.304Z,23.10
2018-12-15T13:39:51.413Z,20.53
2018-12-15T13:42:19.568Z,22.47
2018-12-15T13:44:47.566Z,19.40
2018-12-15T13:47:19.478Z,21.87
2018-12-15T13:49:47.638Z,18.40
2018-12-15T13:52:15.828Z,22.37
2018-12-15T13:54:43.836Z,21.67
2018-12-15T13:57:11.903Z,21.67
2018-12-15T13:59:39.869Z,22.27
2018-12-15T14:02:07.819Z,18.53
2018-12-15T14:04:36.063Z,19.47
2018-12-15T14:07:06.155Z,21.03
2018-12-15T14:09:34.197Z,20.27
2018-12-15T14:12:02.269Z,26.13
2018-12-15T14:14:30.273Z,22.77
2018-12-15T14:16:58.322Z,22.93
2018-12-15T14:19:27.327Z,22.13
2018-12-15T14:21:56.067Z,22.60
2018-12-15T14:24:24.284Z,18.73
2018-12-15T14:26:53.587Z,19.03
2018-12-15T14:29:21.677Z,18.97
2018-12-15T14:31:50.478Z,20.47
2018-12-15T14:34:20.457Z,14.87
2018-12-15T14:36:50.807Z,22.83
2018-12-15T14:39:20.412Z,18.43
2018-12-15T14:41:48.532Z,16.40
2018-12-15T14:44:16.622Z,22.83
2018-12-15T14:46:44.667Z,18.40
2018-12-15T14:49:12.869Z,19.90
2018-12-15T14:51:41.007Z,18.37
2018-12-15T14:54:09.277Z,19.87
2018-12-15T14:56:38.686Z,21.20
2018-12-15T14:59:08.968Z,22.03
2018-12-15T15:01:37.158Z,16.47
2018-12-15T15:04:05.402Z,18.97
2018-12-15T15:06:33.467Z,20.80
2018-12-15T15:09:01.672Z,21.13
2018-12-15T15:11:30.427Z,22.13
2018-12-15T15:13:59.552Z,23.83
2018-12-15T15:16:27.667Z,19.27
2018-12-15T15:18:56.024Z,22.93
2018-12-15T15:21:24.144Z,24.33
2018-12-15T15:23:52.487Z,20.77
2018-12-15T15:26:20.758Z,22.80
2018-12-15T15:28:49.822Z,23.93
2018-12-15T15:31:18.232Z,23.93
2018-12-15T15:33:50.647Z,22.23
2018-12-15T15:36:19.000Z,19.63
2018-12-15T15:38:49.402Z,19.67
2018-12-15T15:41:18.883Z,22.73
2018-12-15T15:43:48.397Z,22.80
2018-12-15T15:46:16.853Z,21.80
2018-12-15T15:48:49.282Z,20.67
2018-12-15T15:51:17.636Z,22.63
2018-12-15T15:53:51.243Z,24.40
2018-12-15T15:56:19.667Z,31.27
2018-12-15T15:58:51.907Z,22.30
2018-12-15T16:01:21.622Z,22.03
2018-12-15T16:03:49.913Z,24.13
2018-12-15T16:06:18.651Z,25.20
2018-12-15T16:08:48.053Z,22.63
2018-12-15T16:11:16.500Z,23.50
2018-12-15T16:13:48.538Z,25.07
2018-12-15T16:16:27.747Z,23.27
2018-12-15T16:18:59.794Z,21.83
2018-12-15T16:21:28.212Z,24.20
2018-12-15T16:23:56.610Z,24.03
2018-12-15T16:26:25.112Z,22.83
2018-12-15T16:28:55.493Z,29.40
2018-12-15T16:31:27.662Z,25.07
2018-12-15T16:33:59.997Z,31.47
2018-12-15T16:36:28.552Z,24.33
2018-12-15T16:38:58.813Z,23.60
2018-12-15T16:41:31.118Z,27.97
2018-12-15T16:44:00.602Z,24.67
2018-12-15T16:46:29.122Z,26.03
2018-12-15T16:48:57.382Z,23.03
2018-12-15T16:51:25.867Z,28.07
2018-12-15T16:53:54.303Z,24.00
2018-12-15T16:56:22.807Z,26.20
2018-12-15T16:58:53.298Z,27.83
2018-12-15T17:01:24.870Z,27.60
2018-12-15T17:03:54.325Z,23.67
2018-12-15T17:06:22.893Z,26.67
2018-12-15T17:08:51.412Z,24.27
2018-12-15T17:11:21.862Z,23.17
2018-12-15T17:13:50.943Z,27.43
2018-12-15T17:16:21.644Z,22.90
2018-12-15T17:18:50.050Z,24.83
2018-12-15T17:21:18.537Z,26.03
2018-12-15T17:23:52.447Z,22.67
2018-12-15T17:26:21.028Z,30.60
2018-12-15T17:28:49.812Z,26.17
2018-12-15T17:31:18.377Z,22.23
2018-12-15T17:33:51.362Z,24.67
2018-12-15T17:36:21.140Z,26.10
2018-12-15T17:38:49.562Z,27.90
2018-12-15T17:41:18.307Z,26.37
2018-12-15T17:43:50.808Z,22.97
2018-12-15T17:46:22.298Z,23.20
2018-12-15T17:48:50.638Z,24.53
2018-12-15T17:51:18.997Z,22.77
2018-12-15T17:53:50.687Z,21.77
2018-12-15T17:56:19.147Z,24.87
2018-12-15T17:58:47.437Z,22.23
2018-12-15T18:01:15.793Z,22.50
2018-12-15T18:03:44.137Z,21.70
2018-12-15T18:06:12.569Z,22.67
2018-12-15T18:08:44.253Z,20.23
2018-12-15T18:11:12.737Z,19.90
2018-12-15T18:13:41.136Z,23.27
2018-12-15T18:16:09.398Z,23.73
2018-12-15T18:18:38.008Z,25.70
2018-12-15T18:21:09.714Z,23.63
2018-12-15T18:23:38.409Z,22.03
2018-12-15T18:26:08.052Z,25.23
2018-12-15T18:28:39.703Z,20.30
2018-12-15T18:31:09.217Z,21.20
2018-12-15T18:33:37.878Z,20.73
2018-12-15T18:36:06.518Z,24.47
2018-12-15T18:38:35.152Z,23.50
2018-12-15T18:41:03.692Z,25.27
2018-12-15T18:43:32.332Z,23.97
2018-12-15T18:46:00.863Z,21.40
2018-12-15T18:48:29.610Z,20.67
2018-12-15T18:50:58.217Z,21.27
2018-12-15T18:53:26.951Z,21.13
2018-12-15T18:55:56.370Z,21.70
2018-12-15T18:58:28.022Z,26.47
2018-12-15T19:00:56.557Z,21.63
2018-12-15T19:03:26.025Z,23.27
2018-12-15T19:05:54.637Z,24.17
2018-12-15T19:08:28.453Z,22.50
2018-12-15T19:10:57.179Z,23.50
2018-12-15T19:13:29.019Z,26.37
2018-12-15T19:15:59.605Z,24.80
2018-12-15T19:18:39.940Z,23.47
2018-12-15T19:21:09.021Z,21.37
2018-12-15T19:23:38.013Z,22.73
2018-12-15T19:26:06.705Z,24.43
2018-12-15T19:28:35.548Z,25.67
2018-12-15T19:31:04.178Z,25.17
2018-12-15T19:33:32.854Z,25.37
2018-12-15T19:36:01.366Z,23.97
2018-12-15T19:41:43.845Z,23.03
2018-12-15T19:44:14.445Z,24.57
2018-12-15T19:46:47.926Z,23.27
2018-12-15T19:49:19.006Z,20.30
2018-12-15T19:51:54.828Z,21.50
2018-12-15T19:54:30.845Z,18.87
2018-12-15T19:57:11.029Z,23.07
2018-12-15T19:59:50.697Z,25.57
2018-12-15T20:05:37.231Z,22.83
2018-12-15T20:08:13.210Z,23.00
2018-12-15T20:10:50.341Z,24.27
2018-12-15T20:13:38.177Z,23.60
2018-12-15T20:30:17.290Z,23.03
2018-12-15T20:35:49.819Z,23.27
2018-12-15T20:56:04.117Z,21.90
2018-12-15T20:58:33.878Z,18.90
2018-12-15T21:15:24.379Z,20.73
2018-12-15T21:31:56.504Z,23.27
2018-12-15T21:50:43.318Z,21.03
2018-12-15T21:53:17.298Z,25.40
2018-12-15T21:56:11.930Z,23.67
2018-12-15T21:58:42.898Z,22.03
2018-12-15T22:01:20.518Z,25.27
2018-12-15T22:07:13.338Z,24.03
2018-12-15T22:09:41.998Z,28.47
2018-12-15T22:12:13.918Z,22.10
2018-12-15T22:14:54.218Z,19.77
2018-12-15T22:17:31.433Z,27.03
2018-12-15T22:20:01.698Z,24.43
2018-12-15T22:22:39.257Z,24.00
2018-12-15T22:25:21.682Z,29.00
2018-12-15T22:28:00.177Z,21.50
2018-12-15T22:30:29.541Z,24.73
2018-12-15T22:33:10.639Z,27.20
2018-12-15T22:35:44.756Z,27.57
2018-12-15T22:38:24.862Z,25.70
2018-12-15T22:41:13.496Z,25.67
2018-12-15T22:43:49.891Z,22.53
2018-12-15T22:46:23.476Z,26.30
2018-12-15T22:48:54.394Z,26.93
2018-12-15T22:51:23.176Z,24.43
2018-12-15T22:54:02.707Z,27.23
2018-12-15T22:56:40.489Z,24.33
2018-12-15T22:59:14.741Z,26.00
2018-12-15T23:01:53.317Z,25.53
2018-12-15T23:04:46.250Z,27.33
2018-12-15T23:07:23.811Z,22.10
2018-12-15T23:09:58.371Z,22.17
2018-12-15T23:12:46.410Z,28.60
2018-12-15T23:18:10.011Z,24.73
2018-12-15T23:20:54.017Z,25.70
2018-12-15T23:23:35.245Z,21.87
2018-12-15T23:26:20.564Z,26.70
2018-12-15T23:28:51.966Z,25.13
2018-12-15T23:31:26.511Z,22.60
2018-12-15T23:34:09.301Z,30.83
2018-12-15T23:36:45.559Z,28.53
2018-12-15T23:39:15.732Z,25.93
2018-12-15T23:41:45.200Z,22.83
2018-12-15T23:44:14.614Z,26.60
2018-12-15T23:47:07.291Z,28.43
2018-12-15T23:49:44.256Z,25.90
2018-12-15T23:52:23.219Z,20.47
2018-12-15T23:55:09.281Z,27.63
2018-12-15T23:58:00.211Z,24.07
